createdAt,value
2022-11-24T00:01:16.586Z,2.89
2022-11-24T00:03:44.068Z,2.91
2022-11-24T00:06:12.699Z,2.92
2022-11-24T00:08:41.033Z,2.94
2022-11-24T00:11:10.215Z,2.95
2022-11-24T00:13:37.336Z,2.96
2022-11-24T00:16:09.325Z,2.95
2022-11-24T00:18:37.767Z,2.95
2022-11-24T00:21:04.821Z,2.97
2022-11-24T00:23:31.724Z,2.97
2022-11-24T00:26:04.209Z,2.99
2022-11-24T00:28:31.907Z,2.98
2022-11-24T00:30:58.681Z,2.98
2022-11-24T00:33:25.425Z,2.99
2022-11-24T00:35:56.021Z,2.99
2022-11-24T00:38:22.847Z,2.99
2022-11-24T00:40:49.702Z,2.99
2022-11-24T00:43:16.356Z,2.99
2022-11-24T00:45:43.454Z,2.99
2022-11-24T00:48:10.308Z,3.01
2022-11-24T00:50:37.059Z,3.02
2022-11-24T00:53:05.170Z,3.02
2022-11-24T00:55:31.972Z,3.03
2022-11-24T00:57:58.863Z,3.06
2022-11-24T01:00:25.640Z,3.09
2022-11-24T01:02:52.555Z,3.10
2022-11-24T01:05:19.457Z,3.10
2022-11-24T01:07:46.207Z,3.11
2022-11-24T01:10:14.439Z,3.11
2022-11-24T01:12:41.124Z,3.10
2022-11-24T01:15:08.600Z,3.10
2022-11-24T01:17:35.294Z,3.09
2022-11-24T01:20:02.029Z,3.10
2022-11-24T01:22:28.759Z,3.10
2022-11-24T01:24:55.442Z,3.10
2022-11-24T01:27:23.521Z,3.09
2022-11-24T01:29:50.171Z,3.10
2022-11-24T01:32:16.865Z,3.10
2022-11-24T01:34:43.642Z,3.10
2022-11-24T01:37:10.361Z,3.11
2022-11-24T01:39:37.040Z,3.11
2022-11-24T01:42:03.824Z,3.12
2022-11-24T01:44:32.222Z,3.13
2022-11-24T01:47:02.708Z,3.15
2022-11-24T01:49:38.349Z,3.15
2022-11-24T01:52:08.433Z,3.16
2022-11-24T01:54:38.149Z,3.15
2022-11-24T01:57:11.223Z,3.14
2022-11-24T01:59:39.490Z,3.11
2022-11-24T02:02:06.730Z,3.09
2022-11-24T02:04:34.575Z,3.07
2022-11-24T02:07:03.308Z,3.05
2022-11-24T02:09:36.080Z,3.05
2022-11-24T02:12:03.264Z,3.02
2022-11-24T02:14:30.157Z,3.02
2022-11-24T02:16:58.284Z,3.03
2022-11-24T02:19:37.627Z,3.02
2022-11-24T02:22:05.021Z,3.02
2022-11-24T02:24:40.104Z,3.01
2022-11-24T02:27:10.653Z,3.02
2022-11-24T02:29:37.967Z,2.98
2022-11-24T02:32:07.533Z,2.96
2022-11-24T02:34:34.831Z,2.94
2022-11-24T02:37:01.783Z,2.94
2022-11-24T02:39:28.683Z,2.92
2022-11-24T02:41:59.337Z,2.92
2022-11-24T02:44:32.633Z,2.92
2022-11-24T02:47:03.828Z,2.92
2022-11-24T02:49:30.511Z,2.94
2022-11-24T02:51:57.290Z,2.93
2022-11-24T02:54:24.113Z,2.93
2022-11-24T02:56:50.956Z,2.89
2022-11-24T02:59:17.769Z,2.88
2022-11-24T03:01:45.907Z,2.88
2022-11-24T03:04:12.716Z,2.90
2022-11-24T03:06:39.561Z,2.90
2022-11-24T03:09:06.511Z,2.88
2022-11-24T03:11:33.280Z,2.88
2022-11-24T03:14:00.046Z,2.88
2022-11-24T03:16:26.794Z,2.87
2022-11-24T03:18:54.938Z,2.87
2022-11-24T03:21:21.686Z,2.85
2022-11-24T03:23:48.405Z,2.83
2022-11-24T03:26:17.542Z,2.78
2022-11-24T03:28:44.467Z,2.78
2022-11-24T03:31:12.077Z,2.76
2022-11-24T03:33:39.374Z,2.74
2022-11-24T03:36:08.824Z,2.76
2022-11-24T03:38:35.506Z,2.76
2022-11-24T03:41:02.260Z,2.76
2022-11-24T03:43:29.022Z,2.77
2022-11-24T03:45:55.846Z,2.77
2022-11-24T03:48:22.633Z,2.78
2022-11-24T03:50:54.012Z,2.79
2022-11-24T03:53:22.634Z,2.78
2022-11-24T03:55:49.344Z,2.76
2022-11-24T03:58:16.068Z,2.74
2022-11-24T04:00:42.952Z,2.70
2022-11-24T04:03:09.717Z,2.66
2022-11-24T04:05:36.712Z,2.62
2022-11-24T04:08:03.562Z,2.56
2022-11-24T04:10:32.192Z,2.52
2022-11-24T04:12:58.955Z,2.49
2022-11-24T04:15:25.552Z,2.49
2022-11-24T04:17:55.603Z,2.51
2022-11-24T04:20:23.099Z,2.50
2022-11-24T04:22:50.178Z,2.50
2022-11-24T04:25:16.844Z,2.48
2022-11-24T04:27:44.864Z,2.48
2022-11-24T04:30:11.915Z,2.51
2022-11-24T04:32:38.543Z,2.53
2022-11-24T04:35:05.875Z,2.54
2022-11-24T04:37:32.525Z,2.54
2022-11-24T04:39:59.236Z,2.53
2022-11-24T04:42:25.909Z,2.52
2022-11-24T04:44:53.860Z,2.54
2022-11-24T04:47:23.103Z,2.54
2022-11-24T04:49:50.347Z,2.55
2022-11-24T04:52:17.329Z,2.53
2022-11-24T04:54:44.147Z,2.53
2022-11-24T04:57:16.184Z,2.53
2022-11-24T04:59:43.056Z,2.51
2022-11-24T05:02:11.373Z,2.50
2022-11-24T05:04:38.308Z,2.49
2022-11-24T05:07:05.374Z,2.49
2022-11-24T05:09:54.923Z,2.48
2022-11-24T05:12:18.577Z,2.49
2022-11-24T05:14:45.181Z,2.49
2022-11-24T05:17:13.142Z,2.49
2022-11-24T05:19:39.741Z,2.48
2022-11-24T05:22:06.363Z,2.49
2022-11-24T05:24:33.148Z,2.47
2022-11-24T05:26:59.973Z,2.47
2022-11-24T05:29:26.576Z,2.47
2022-11-24T05:31:53.168Z,2.47
2022-11-24T05:34:21.186Z,2.46
2022-11-24T05:36:47.718Z,2.45
2022-11-24T05:39:14.315Z,2.46
2022-11-24T05:41:41.774Z,2.47
2022-11-24T05:44:08.519Z,2.45
2022-11-24T05:46:35.132Z,2.46
2022-11-24T05:49:01.845Z,2.47
2022-11-24T05:51:29.960Z,2.46
2022-11-24T05:53:56.646Z,2.48
2022-11-24T05:56:23.201Z,2.47
2022-11-24T05:58:49.740Z,2.46
2022-11-24T06:01:16.292Z,2.48
2022-11-24T06:03:42.856Z,2.48
2022-11-24T06:06:10.428Z,2.48
2022-11-24T06:08:38.369Z,2.48
2022-11-24T06:11:05.098Z,2.48
2022-11-24T06:13:31.687Z,2.48
2022-11-24T06:15:59.373Z,2.50
2022-11-24T06:18:25.983Z,2.50
2022-11-24T06:21:09.780Z,2.52
2022-11-24T06:23:38.603Z,2.53
2022-11-24T06:26:05.533Z,2.51
2022-11-24T06:28:32.137Z,2.49
2022-11-24T06:31:02.408Z,2.50
2022-11-24T06:33:31.779Z,2.50
2022-11-24T06:36:00.397Z,2.49
2022-11-24T06:38:27.056Z,2.50
2022-11-24T06:41:00.343Z,2.49
2022-11-24T06:43:26.969Z,2.47
2022-11-24T06:45:53.602Z,2.44
2022-11-24T06:48:20.229Z,2.44
2022-11-24T06:50:46.818Z,2.45
2022-11-24T06:53:13.370Z,2.47
2022-11-24T06:55:40.159Z,2.49
2022-11-24T06:58:08.074Z,2.49
2022-11-24T07:00:34.699Z,2.49
2022-11-24T07:03:01.370Z,2.46
2022-11-24T07:05:28.210Z,2.45
2022-11-24T07:07:54.855Z,2.47
2022-11-24T07:10:21.696Z,2.47
2022-11-24T07:12:48.292Z,2.47
2022-11-24T07:15:16.411Z,2.47
2022-11-24T07:17:42.988Z,2.49
2022-11-24T07:20:10.409Z,2.49
2022-11-24T07:22:36.996Z,2.50
2022-11-24T07:25:03.951Z,2.51
2022-11-24T07:27:30.531Z,2.53
2022-11-24T07:29:57.144Z,2.53
2022-11-24T07:32:25.180Z,2.53
2022-11-24T07:34:51.774Z,2.54
2022-11-24T07:37:18.364Z,2.58
2022-11-24T07:39:44.894Z,2.61
2022-11-24T07:42:11.534Z,2.63
2022-11-24T07:44:38.076Z,2.64
2022-11-24T07:47:04.696Z,2.65
2022-11-24T07:49:32.684Z,2.65
2022-11-24T07:51:59.277Z,2.65
2022-11-24T07:54:25.823Z,2.67
2022-11-24T07:56:52.346Z,2.69
2022-11-24T07:59:18.928Z,2.70
2022-11-24T08:01:45.525Z,2.75
2022-11-24T08:04:12.293Z,2.80
2022-11-24T08:06:45.944Z,2.85
2022-11-24T08:09:13.858Z,2.90
2022-11-24T08:11:40.628Z,2.94
2022-11-24T08:14:07.234Z,2.96
2022-11-24T08:16:33.892Z,2.97
2022-11-24T08:19:00.506Z,2.99
2022-11-24T08:21:27.046Z,2.99
2022-11-24T08:23:56.241Z,3.00
2022-11-24T08:26:23.391Z,3.03
2022-11-24T08:28:54.069Z,3.08
2022-11-24T08:31:20.802Z,3.09
2022-11-24T08:33:47.436Z,3.11
2022-11-24T08:36:15.630Z,3.16
2022-11-24T08:38:42.682Z,3.22
2022-11-24T08:41:12.417Z,3.28
2022-11-24T08:43:39.492Z,3.32
2022-11-24T08:46:09.214Z,3.35
2022-11-24T08:48:36.808Z,3.39
2022-11-24T08:51:07.272Z,3.43
2022-11-24T08:53:33.970Z,3.46
2022-11-24T08:56:00.767Z,3.49
2022-11-24T08:58:29.773Z,3.52
2022-11-24T09:01:03.206Z,3.56
2022-11-24T09:03:29.894Z,3.59
2022-11-24T09:05:56.458Z,3.62
2022-11-24T09:08:23.026Z,3.69
2022-11-24T09:10:49.576Z,3.76
2022-11-24T09:13:16.183Z,3.79
2022-11-24T09:15:44.151Z,3.85
2022-11-24T09:18:10.685Z,3.90
2022-11-24T09:20:37.372Z,3.95
2022-11-24T09:23:03.912Z,3.98
2022-11-24T09:25:30.490Z,4.02
2022-11-24T09:27:57.171Z,4.05
2022-11-24T09:30:24.007Z,4.08
2022-11-24T09:32:51.976Z,4.13
2022-11-24T09:35:18.593Z,4.20
2022-11-24T09:37:45.184Z,4.24
2022-11-24T09:40:14.752Z,4.28
2022-11-24T09:42:53.513Z,4.32
2022-11-24T09:46:03.318Z,4.35
2022-11-24T09:48:25.562Z,4.38
2022-11-24T09:50:52.994Z,4.40
2022-11-24T09:53:27.401Z,4.45
2022-11-24T09:55:58.428Z,4.50
2022-11-24T09:58:35.833Z,4.50
2022-11-24T10:01:07.706Z,4.53
2022-11-24T10:03:39.148Z,4.57
2022-11-24T10:06:19.718Z,4.65
2022-11-24T10:09:30.738Z,4.71
2022-11-24T10:12:13.187Z,4.78
2022-11-24T10:15:00.815Z,4.86
2022-11-24T10:17:42.622Z,4.96
2022-11-24T10:20:19.100Z,5.00
2022-11-24T10:22:58.060Z,4.98
2022-11-24T10:25:26.129Z,4.99
2022-11-24T10:27:57.951Z,5.00
2022-11-24T10:30:24.659Z,5.04
2022-11-24T10:32:56.836Z,5.04
2022-11-24T10:35:29.690Z,5.09
2022-11-24T10:38:02.382Z,5.11
2022-11-24T10:43:26.459Z,5.20
2022-11-24T10:45:53.378Z,5.25
2022-11-24T10:48:24.108Z,5.29
2022-11-24T10:50:53.199Z,5.35
2022-11-24T10:53:24.616Z,5.40
2022-11-24T10:56:02.080Z,5.42
2022-11-24T10:58:36.025Z,5.45
2022-11-24T11:01:27.548Z,5.50
2022-11-24T11:03:57.966Z,5.55
2022-11-24T11:06:28.152Z,5.57
2022-11-24T11:09:16.687Z,5.58
2022-11-24T11:11:43.253Z,5.62
2022-11-24T11:14:11.068Z,5.64
2022-11-24T11:16:39.833Z,5.65
2022-11-24T11:19:48.525Z,5.65
2022-11-24T11:22:25.406Z,5.62
2022-11-24T11:25:05.677Z,5.63
2022-11-24T11:27:32.342Z,5.64
2022-11-24T11:35:51.826Z,5.70
2022-11-24T11:38:20.665Z,5.70
2022-11-24T11:40:50.219Z,5.71
2022-11-24T11:43:25.751Z,5.69
2022-11-24T11:46:02.183Z,5.68
2022-11-24T11:48:40.593Z,5.69
2022-11-24T11:51:30.770Z,5.71
2022-11-24T11:54:07.911Z,5.73
2022-11-24T11:56:37.998Z,5.75
2022-11-24T11:59:37.541Z,5.77
2022-11-24T12:02:33.321Z,5.80
2022-11-24T12:05:01.935Z,5.80
2022-11-24T12:07:58.154Z,5.83
2022-11-24T12:10:36.222Z,5.85
2022-11-24T12:13:28.741Z,5.87
2022-11-24T12:15:58.805Z,5.89
2022-11-24T12:18:56.589Z,5.91
2022-11-24T12:21:29.738Z,5.90
2022-11-24T12:24:04.528Z,5.90
2022-11-24T12:26:42.581Z,5.88
2022-11-24T12:30:06.038Z,5.88
2022-11-24T12:33:00.924Z,5.92
2022-11-24T12:35:34.326Z,5.95
2022-11-24T12:38:05.420Z,5.97
2022-11-24T12:41:06.495Z,5.97
2022-11-24T12:43:50.122Z,5.96
2022-11-24T12:46:21.112Z,5.95
2022-11-24T12:48:57.640Z,5.94
2022-11-24T12:51:29.234Z,5.96
2022-11-24T12:53:58.529Z,5.96
2022-11-24T12:56:35.990Z,5.91
2022-11-24T12:59:17.950Z,5.89
2022-11-24T13:01:51.174Z,5.89
2022-11-24T13:04:29.898Z,5.85
2022-11-24T13:07:01.179Z,5.83
2022-11-24T13:09:27.794Z,5.83
2022-11-24T13:12:05.180Z,5.83
2022-11-24T13:14:37.548Z,5.82
2022-11-24T13:17:38.310Z,5.83
2022-11-24T13:20:24.168Z,5.87
2022-11-24T13:22:52.719Z,5.89
2022-11-24T13:25:21.629Z,5.92
2022-11-24T13:27:50.036Z,5.94
2022-11-24T13:30:55.274Z,5.97
2022-11-24T13:33:33.815Z,6.00
2022-11-24T13:36:32.610Z,6.04
2022-11-24T13:39:01.038Z,6.07
2022-11-24T13:42:07.594Z,6.11
2022-11-24T13:44:53.994Z,6.16
2022-11-24T13:47:37.424Z,6.19
2022-11-24T13:50:06.884Z,6.23
2022-11-24T13:52:43.811Z,6.23
2022-11-24T13:55:22.822Z,6.24
2022-11-24T13:57:52.079Z,6.25
2022-11-24T14:00:21.975Z,6.25
2022-11-24T14:02:51.695Z,6.25
2022-11-24T14:05:22.550Z,6.24
2022-11-24T14:07:53.008Z,6.23
2022-11-24T14:10:24.461Z,6.22
2022-11-24T14:13:25.054Z,6.22
2022-11-24T14:15:59.416Z,6.22
2022-11-24T14:18:27.954Z,6.21
2022-11-24T14:20:54.781Z,6.18
2022-11-24T14:23:21.865Z,6.16
2022-11-24T14:25:49.724Z,6.13
2022-11-24T14:28:22.799Z,6.13
2022-11-24T14:30:49.530Z,6.11
2022-11-24T14:33:18.510Z,6.12
2022-11-24T14:35:47.965Z,6.12
2022-11-24T14:38:14.685Z,6.12
2022-11-24T14:40:43.508Z,6.12
2022-11-24T14:43:21.548Z,6.11
2022-11-24T14:45:53.314Z,6.10
2022-11-24T14:48:25.632Z,6.09
2022-11-24T14:50:54.754Z,6.09
2022-11-24T14:53:26.184Z,6.08
2022-11-24T14:56:14.035Z,6.08
2022-11-24T14:58:42.459Z,6.08
2022-11-24T15:01:17.900Z,6.07
2022-11-24T15:03:44.584Z,6.04
2022-11-24T15:06:18.131Z,6.03
2022-11-24T15:08:46.906Z,6.02
2022-11-24T15:11:14.644Z,6.01
2022-11-24T15:13:53.063Z,6.02
2022-11-24T15:16:23.158Z,5.99
2022-11-24T15:18:57.382Z,5.98
2022-11-24T15:21:32.651Z,5.98
2022-11-24T15:24:07.492Z,5.98
2022-11-24T15:26:38.519Z,5.97
2022-11-24T15:29:08.818Z,5.97
2022-11-24T15:31:35.614Z,5.97
2022-11-24T15:34:02.216Z,5.97
2022-11-24T15:36:28.865Z,5.97
2022-11-24T15:38:56.860Z,5.97
2022-11-24T15:41:28.313Z,5.97
2022-11-24T15:43:54.887Z,5.95
2022-11-24T15:46:21.646Z,5.96
2022-11-24T15:48:48.262Z,5.94
2022-11-24T15:51:15.277Z,5.95
2022-11-24T15:53:45.016Z,5.93
2022-11-24T15:56:19.070Z,5.93
2022-11-24T15:58:45.694Z,5.92
2022-11-24T16:01:12.289Z,5.91
2022-11-24T16:03:47.091Z,5.92
2022-11-24T16:06:22.184Z,5.90
2022-11-24T16:08:51.366Z,5.90
2022-11-24T16:11:19.297Z,5.91
2022-11-24T16:13:51.799Z,5.91
2022-11-24T16:16:20.590Z,5.92
2022-11-24T16:18:47.338Z,5.92
2022-11-24T16:21:13.993Z,5.92
2022-11-24T16:23:40.655Z,5.90
2022-11-24T16:26:07.518Z,5.89
2022-11-24T16:28:35.513Z,5.88
2022-11-24T16:31:02.301Z,5.87
2022-11-24T16:33:29.639Z,5.89
2022-11-24T16:35:56.407Z,5.90
2022-11-24T16:38:23.029Z,5.92
2022-11-24T16:40:51.263Z,5.94
2022-11-24T16:43:18.028Z,5.94
2022-11-24T16:45:46.203Z,5.94
2022-11-24T16:48:12.896Z,5.96
2022-11-24T16:50:39.495Z,5.97
2022-11-24T16:53:06.087Z,5.97
2022-11-24T16:55:32.670Z,5.99
2022-11-24T16:57:59.222Z,5.99
2022-11-24T17:00:25.762Z,6.00
2022-11-24T17:02:53.936Z,5.99
2022-11-24T17:05:20.612Z,5.99
2022-11-24T17:07:47.293Z,5.99
2022-11-24T17:10:14.010Z,5.98
2022-11-24T17:12:40.559Z,5.95
2022-11-24T17:15:31.849Z,5.93
2022-11-24T17:18:23.043Z,5.91
2022-11-24T17:20:42.274Z,5.89
2022-11-24T17:23:08.859Z,5.87
2022-11-24T17:25:35.469Z,5.87
2022-11-24T17:28:02.043Z,5.86
2022-11-24T17:30:28.714Z,5.85
2022-11-24T17:32:57.134Z,5.84
2022-11-24T17:35:23.792Z,5.85
2022-11-24T17:37:50.436Z,5.83
2022-11-24T17:40:32.391Z,5.83
2022-11-24T17:42:59.354Z,5.80
2022-11-24T17:45:26.099Z,5.77
2022-11-24T17:47:52.751Z,5.75
2022-11-24T17:50:25.460Z,5.73
2022-11-24T17:52:52.759Z,5.72
2022-11-24T17:55:19.348Z,5.72
2022-11-24T17:57:45.906Z,5.70
2022-11-24T18:00:13.808Z,5.69
2022-11-24T18:02:40.447Z,5.68
2022-11-24T18:05:07.808Z,5.64
2022-11-24T18:07:36.570Z,5.63
2022-11-24T18:10:03.945Z,5.58
2022-11-24T18:12:30.552Z,5.54
2022-11-24T18:14:57.234Z,5.50
2022-11-24T18:17:23.840Z,5.45
2022-11-24T18:19:50.562Z,5.43
2022-11-24T18:22:17.644Z,5.41
2022-11-24T18:24:47.010Z,5.38
2022-11-24T18:27:13.580Z,5.35
2022-11-24T18:29:40.142Z,5.32
2022-11-24T18:32:06.785Z,5.30
2022-11-24T18:34:33.741Z,5.27
2022-11-24T18:37:00.563Z,5.25
2022-11-24T18:39:27.097Z,5.22
2022-11-24T18:41:55.083Z,5.19
2022-11-24T18:44:21.775Z,5.16
2022-11-24T18:46:49.268Z,5.10
2022-11-24T18:49:15.877Z,5.07
2022-11-24T18:51:42.474Z,5.00
2022-11-24T18:54:09.035Z,4.92
2022-11-24T18:56:35.603Z,4.86
2022-11-24T18:59:03.525Z,4.79
2022-11-24T19:01:30.200Z,4.75
2022-11-24T19:03:58.442Z,4.71
2022-11-24T19:06:27.269Z,4.67
2022-11-24T19:08:54.725Z,4.60
2022-11-24T19:11:22.704Z,4.55
2022-11-24T19:13:50.502Z,4.52
2022-11-24T19:16:19.768Z,4.49
2022-11-24T19:18:51.971Z,4.46
2022-11-24T19:21:20.032Z,4.40
2022-11-24T19:23:46.643Z,4.37
2022-11-24T19:26:13.419Z,4.32
2022-11-24T19:28:40.045Z,4.27
2022-11-24T19:31:08.457Z,4.23
2022-11-24T19:33:36.511Z,4.20
2022-11-24T19:36:04.857Z,4.15
2022-11-24T19:38:33.201Z,4.12
2022-11-24T19:41:01.384Z,4.08
2022-11-24T19:43:28.022Z,4.04
2022-11-24T19:45:54.656Z,4.00
2022-11-24T19:48:21.340Z,3.96
2022-11-24T19:50:49.311Z,3.91
2022-11-24T19:53:15.910Z,3.85
2022-11-24T19:55:42.471Z,3.81
2022-11-24T19:58:09.034Z,3.75
2022-11-24T20:00:35.605Z,3.72
2022-11-24T20:03:02.268Z,3.67
2022-11-24T20:05:28.853Z,3.62
2022-11-24T20:07:56.954Z,3.58
2022-11-24T20:10:23.654Z,3.56
2022-11-24T20:12:50.628Z,3.54
2022-11-24T20:15:17.257Z,3.51
2022-11-24T20:17:43.840Z,3.48
2022-11-24T20:20:11.234Z,3.47
2022-11-24T20:22:37.795Z,3.46
2022-11-24T20:25:06.550Z,3.44
2022-11-24T20:27:33.133Z,3.43
2022-11-24T20:29:59.733Z,3.42
2022-11-24T20:32:26.311Z,3.40
2022-11-24T20:34:52.939Z,3.40
2022-11-24T20:37:19.513Z,3.39
2022-11-24T20:39:46.078Z,3.41
2022-11-24T20:42:14.044Z,3.41
2022-11-24T20:44:40.627Z,3.42
2022-11-24T20:47:07.185Z,3.43
2022-11-24T20:49:33.765Z,3.43
2022-11-24T20:52:00.356Z,3.45
2022-11-24T20:54:27.254Z,3.46
2022-11-24T20:56:54.167Z,3.46
2022-11-24T20:59:24.021Z,3.46
2022-11-24T21:01:51.934Z,3.47
2022-11-24T21:04:20.865Z,3.47
2022-11-24T21:06:47.614Z,3.46
2022-11-24T21:09:14.693Z,3.46
2022-11-24T21:11:41.754Z,3.46
2022-11-24T21:14:09.023Z,3.45
2022-11-24T21:16:38.576Z,3.44
2022-11-24T21:19:07.378Z,3.44
2022-11-24T21:21:35.948Z,3.44
2022-11-24T21:24:04.222Z,3.42
2022-11-24T21:26:30.791Z,3.43
2022-11-24T21:28:57.657Z,3.44
2022-11-24T21:31:24.307Z,3.44
2022-11-24T21:33:53.986Z,3.45
2022-11-24T21:36:22.751Z,3.45
2022-11-24T21:38:51.202Z,3.46
2022-11-24T21:41:18.654Z,3.48
2022-11-24T21:43:45.317Z,3.49
2022-11-24T21:46:12.949Z,3.50
2022-11-24T21:48:40.382Z,3.53
2022-11-24T21:51:12.314Z,3.53
2022-11-24T21:53:39.607Z,3.55
2022-11-24T21:56:07.960Z,3.56
2022-11-24T21:58:34.573Z,3.58
2022-11-24T22:01:02.127Z,3.60
2022-11-24T22:03:28.744Z,3.63
2022-11-24T22:05:56.532Z,3.64
2022-11-24T22:08:25.942Z,3.64
2022-11-24T22:10:52.885Z,3.64
2022-11-24T22:13:20.137Z,3.64
2022-11-24T22:15:46.753Z,3.65
2022-11-24T22:18:13.301Z,3.66
2022-11-24T22:20:39.881Z,3.67
2022-11-24T22:23:06.478Z,3.69
2022-11-24T22:25:34.704Z,3.70
2022-11-24T22:28:01.339Z,3.72
2022-11-24T22:30:27.940Z,3.74
2022-11-24T22:32:54.536Z,3.77
2022-11-24T22:35:21.897Z,3.77
2022-11-24T22:37:48.452Z,3.79
2022-11-24T22:40:15.260Z,3.82
2022-11-24T22:42:43.213Z,3.86
2022-11-24T22:45:10.452Z,3.87
2022-11-24T22:47:37.017Z,3.88
2022-11-24T22:50:04.553Z,3.90
2022-11-24T22:52:31.132Z,3.92
2022-11-24T22:54:57.713Z,3.95
2022-11-24T22:57:24.327Z,3.95
2022-11-24T22:59:52.300Z,3.97
2022-11-24T23:02:18.905Z,3.97
2022-11-24T23:04:45.464Z,4.00
2022-11-24T23:07:12.069Z,4.01
2022-11-24T23:09:38.629Z,4.03
2022-11-24T23:12:05.740Z,4.04
2022-11-24T23:14:32.408Z,4.04
2022-11-24T23:17:00.372Z,4.06
2022-11-24T23:19:26.964Z,4.08
2022-11-24T23:21:53.507Z,4.10
2022-11-24T23:24:20.090Z,4.12
2022-11-24T23:26:46.716Z,4.13
2022-11-24T23:29:13.354Z,4.16
2022-11-24T23:31:40.302Z,4.18
2022-11-24T23:34:08.519Z,4.19
2022-11-24T23:36:35.246Z,4.21
2022-11-24T23:39:03.329Z,4.21
2022-11-24T23:41:31.030Z,4.20
2022-11-24T23:43:57.668Z,4.21
2022-11-24T23:46:25.838Z,4.22
2022-11-24T23:48:53.980Z,4.22
2022-11-24T23:51:23.662Z,4.24
2022-11-24T23:53:51.120Z,4.26
2022-11-24T23:56:19.641Z,4.28
2022-11-24T23:58:46.642Z,4.30
